McKinley Park, Alaska
Current Conditions -  °F | °C
As of 11:36 PM on Thursday 27 Nov 2014 (Local Time) from PAIN Reporting Station
Clear Clear  
Wind Chill: -8°   Ceiling: Unl
Heat Index: -8°   Visibility: 10mi
Dew Point: -11°   Wind: 0mph
Humidity: 84%   Direction: NA
Pressure: 30.1"   Gusts: NA
Location:  63.73°N, 148.91°W
Report Text: PAIN 280836Z AUTO 00000KT 10SM CLR M22/M24 A3010 RMK AO1
Loading
Personal Weather Stations






























Interactive Weather Map New forecast layout! Learn more

10-Day Weather Forecast

Advertisements
Track Severe Weather on mobile